sensor_id;sensor_type;location;lat;lon;timestamp;pressure;altitude;pressure_sealevel;temperature;humidity
39769;BME280;38939;47.824;14.642;2023-05-07T00:00:00;96882.16;;;13.51;86.44
39769;BME280;38939;47.824;14.642;2023-05-07T00:01:02;96884.19;;;13.49;86.71
39769;BME280;38939;47.824;14.642;2023-05-07T00:02:04;96892.06;;;13.49;86.20
39769;BME280;38939;47.824;14.642;2023-05-07T00:03:06;96888.44;;;13.50;86.14
39769;BME280;38939;47.824;14.642;2023-05-07T00:04:08;96895.03;;;13.52;85.74
39769;BME280;38939;47.824;14.642;2023-05-07T00:05:11;96890.16;;;13.56;85.40
39769;BME280;38939;47.824;14.642;2023-05-07T00:06:14;96882.09;;;13.57;84.86
39769;BME280;38939;47.824;14.642;2023-05-07T00:07:16;96882.88;;;13.58;84.91
39769;BME280;38939;47.824;14.642;2023-05-07T00:08:18;96886.75;;;13.55;85.72
39769;BME280;38939;47.824;14.642;2023-05-07T00:09:20;96887.53;;;13.56;85.32
39769;BME280;38939;47.824;14.642;2023-05-07T00:10:23;96887.97;;;13.53;85.97
39769;BME280;38939;47.824;14.642;2023-05-07T00:11:24;96887.47;;;13.44;86.58
39769;BME280;38939;47.824;14.642;2023-05-07T00:12:27;96892.50;;;13.46;86.17
39769;BME280;38939;47.824;14.642;2023-05-07T00:13:29;96892.06;;;13.49;85.63
39769;BME280;38939;47.824;14.642;2023-05-07T00:14:36;96889.81;;;13.52;85.39
39769;BME280;38939;47.824;14.642;2023-05-07T00:15:38;96897.44;;;13.54;85.08
39769;BME280;38939;47.824;14.642;2023-05-07T00:16:40;96894.63;;;13.55;85.62
39769;BME280;38939;47.824;14.642;2023-05-07T00:17:42;96894.25;;;13.52;85.44
39769;BME280;38939;47.824;14.642;2023-05-07T00:18:44;96892.41;;;13.52;85.12
39769;BME280;38939;47.824;14.642;2023-05-07T00:19:46;96890.59;;;13.53;85.27
39769;BME280;38939;47.824;14.642;2023-05-07T00:20:49;96892.78;;;13.56;85.30
39769;BME280;38939;47.824;14.642;2023-05-07T00:21:51;96889.13;;;13.57;84.82
39769;BME280;38939;47.824;14.642;2023-05-07T00:22:55;96884.72;;;13.57;85.31
39769;BME280;38939;47.824;14.642;2023-05-07T00:23:57;96891.53;;;13.58;85.21
39769;BME280;38939;47.824;14.642;2023-05-07T00:24:59;96888.69;;;13.60;84.90
39769;BME280;38939;47.824;14.642;2023-05-07T00:26:02;96891.31;;;13.60;85.22
39769;BME280;38939;47.824;14.642;2023-05-07T00:27:04;96891.91;;;13.62;85.07
39769;BME280;38939;47.824;14.642;2023-05-07T00:28:06;96893.72;;;13.62;85.62
39769;BME280;38939;47.824;14.642;2023-05-07T00:29:08;96893.72;;;13.62;85.50
39769;BME280;38939;47.824;14.642;2023-05-07T00:30:10;96895.78;;;13.59;86.10
39769;BME280;38939;47.824;14.642;2023-05-07T00:31:13;96900.66;;;13.56;86.71
39769;BME280;38939;47.824;14.642;2023-05-07T00:32:15;96898.03;;;13.56;86.48
39769;BME280;38939;47.824;14.642;2023-05-07T00:33:17;96893.56;;;13.56;86.79
39769;BME280;38939;47.824;14.642;2023-05-07T00:34:19;96892.31;;;13.59;86.49
39769;BME280;38939;47.824;14.642;2023-05-07T00:35:21;96899.19;;;13.60;86.30
39769;BME280;38939;47.824;14.642;2023-05-07T00:36:22;96892.13;;;13.60;86.18
39769;BME280;38939;47.824;14.642;2023-05-07T00:37:24;96897.16;;;13.62;86.16
39769;BME280;38939;47.824;14.642;2023-05-07T00:38:26;96890.75;;;13.58;86.40
39769;BME280;38939;47.824;14.642;2023-05-07T00:39:28;96885.94;;;13.55;86.60
39769;BME280;38939;47.824;14.642;2023-05-07T00:40:30;96895.84;;;13.53;86.47
39769;BME280;38939;47.824;14.642;2023-05-07T00:41:32;96898.47;;;13.53;87.14
39769;BME280;38939;47.824;14.642;2023-05-07T00:42:34;96895.50;;;13.49;87.16
39769;BME280;38939;47.824;14.642;2023-05-07T00:43:36;96892.06;;;13.49;87.17
39769;BME280;38939;47.824;14.642;2023-05-07T00:44:38;96894.47;;;13.50;87.14
39769;BME280;38939;47.824;14.642;2023-05-07T00:45:39;96889.59;;;13.54;86.79
39769;BME280;38939;47.824;14.642;2023-05-07T00:46:41;96892.78;;;13.56;86.62
39769;BME280;38939;47.824;14.642;2023-05-07T00:47:43;96885.72;;;13.56;86.88
39769;BME280;38939;47.824;14.642;2023-05-07T00:48:45;96888.13;;;13.58;86.54
39769;BME280;38939;47.824;14.642;2023-05-07T00:49:47;96893.94;;;13.60;86.89
39769;BME280;38939;47.824;14.642;2023-05-07T00:50:49;96893.94;;;13.60;86.39
39769;BME280;38939;47.824;14.642;2023-05-07T00:51:51;96890.06;;;13.63;86.19
39769;BME280;38939;47.824;14.642;2023-05-07T00:52:53;96891.69;;;13.64;86.01
39769;BME280;38939;47.824;14.642;2023-05-07T00:53:55;96892.25;;;13.66;85.89
39769;BME280;38939;47.824;14.642;2023-05-07T00:54:57;96891.44;;;13.65;85.86
39769;BME280;38939;47.824;14.642;2023-05-07T00:55:59;96892.03;;;13.67;85.72
39769;BME280;38939;47.824;14.642;2023-05-07T00:57:02;96891.22;;;13.67;85.81
39769;BME280;38939;47.824;14.642;2023-05-07T00:58:05;96884.16;;;13.67;85.70
39769;BME280;38939;47.824;14.642;2023-05-07T00:59:07;96886.56;;;13.69;85.79
39769;BME280;38939;47.824;14.642;2023-05-07T01:00:10;96897.84;;;13.69;85.75
39769;BME280;38939;47.824;14.642;2023-05-07T01:01:14;96899.25;;;13.72;85.33
39769;BME280;38939;47.824;14.642;2023-05-07T01:02:18;96897.63;;;13.71;85.40
39769;BME280;38939;47.824;14.642;2023-05-07T01:03:20;96901.03;;;13.71;85.22
39769;BME280;38939;47.824;14.642;2023-05-07T01:04:23;96889.97;;;13.69;85.01
39769;BME280;38939;47.824;14.642;2023-05-07T01:05:25;96896.84;;;13.70;85.12
39769;BME280;38939;47.824;14.642;2023-05-07T01:06:29;96893.84;;;13.67;85.04
39769;BME280;38939;47.824;14.642;2023-05-07T01:07:34;96900.34;;;13.64;85.48
39769;BME280;38939;47.824;14.642;2023-05-07T01:08:36;96898.16;;;13.61;85.86
39769;BME280;38939;47.824;14.642;2023-05-07T01:09:38;96890.97;;;13.56;85.57
39769;BME280;38939;47.824;14.642;2023-05-07T01:10:40;96889.13;;;13.57;85.72
39769;BME280;38939;47.824;14.642;2023-05-07T01:11:44;96889.13;;;13.57;85.76
39769;BME280;38939;47.824;14.642;2023-05-07T01:12:46;96895.19;;;13.57;85.75
39769;BME280;38939;47.824;14.642;2023-05-07T01:13:49;96894.16;;;13.58;85.24
39769;BME280;38939;47.824;14.642;2023-05-07T01:14:52;96889.13;;;13.57;85.47
39769;BME280;38939;47.824;14.642;2023-05-07T01:15:54;96889.13;;;13.57;85.15
39769;BME280;38939;47.824;14.642;2023-05-07T01:16:56;96889.38;;;13.55;85.58
39769;BME280;38939;47.824;14.642;2023-05-07T01:17:58;96885.59;;;13.51;86.09
39769;BME280;38939;47.824;14.642;2023-05-07T01:19:00;96879.78;;;13.49;85.84
39769;BME280;38939;47.824;14.642;2023-05-07T01:20:03;96885.44;;;13.46;86.16
39769;BME280;38939;47.824;14.642;2023-05-07T01:21:06;96888.00;;;13.34;86.83
39769;BME280;38939;47.824;14.642;2023-05-07T01:22:10;96882.63;;;13.29;87.30
39769;BME280;38939;47.824;14.642;2023-05-07T01:23:13;96884.22;;;13.30;87.23
39769;BME280;38939;47.824;14.642;2023-05-07T01:24:15;96889.44;;;13.30;87.58
39769;BME280;38939;47.824;14.642;2023-05-07T01:25:18;96887.88;;;13.29;87.68
39769;BME280;38939;47.824;14.642;2023-05-07T01:26:20;96889.44;;;13.30;87.65
39769;BME280;38939;47.824;14.642;2023-05-07T01:27:22;96886.84;;;13.30;87.19
39769;BME280;38939;47.824;14.642;2023-05-07T01:28:23;96886.22;;;13.28;87.65
39769;BME280;38939;47.824;14.642;2023-05-07T01:29:25;96882.63;;;13.29;87.65
39769;BME280;38939;47.824;14.642;2023-05-07T01:30:27;96889.44;;;13.30;87.57
39769;BME280;38939;47.824;14.642;2023-05-07T01:31:30;96885.81;;;13.31;87.28
39769;BME280;38939;47.824;14.642;2023-05-07T01:32:33;96884.56;;;13.34;87.04
39769;BME280;38939;47.824;14.642;2023-05-07T01:33:37;96881.16;;;13.33;87.00
39769;BME280;38939;47.824;14.642;2023-05-07T01:34:40;96889.03;;;13.33;87.17
39769;BME280;38939;47.824;14.642;2023-05-07T01:35:43;96887.41;;;13.32;87.18
39769;BME280;38939;47.824;14.642;2023-05-07T01:36:47;96883.19;;;13.31;87.60
39769;BME280;38939;47.824;14.642;2023-05-07T01:37:50;96890.47;;;13.29;88.26
39769;BME280;38939;47.824;14.642;2023-05-07T01:38:52;96890.28;;;13.24;88.60
39769;BME280;38939;47.824;14.642;2023-05-07T01:39:54;96891.09;;;13.25;88.59
39769;BME280;38939;47.824;14.642;2023-05-07T01:40:57;96885.50;;;13.21;88.72
39769;BME280;38939;47.824;14.642;2023-05-07T01:41:59;96883.47;;;13.23;89.11
39769;BME280;38939;47.824;14.642;2023-05-07T01:43:02;96887.25;;;13.27;88.65
39769;BME280;38939;47.824;14.642;2023-05-07T01:44:03;96885.81;;;13.31;88.36
39769;BME280;38939;47.824;14.642;2023-05-07T01:45:07;96889.59;;;13.35;88.49
39769;BME280;38939;47.824;14.642;2023-05-07T01:46:09;96889.38;;;13.37;88.16
39769;BME280;38939;47.824;14.642;2023-05-07T01:47:12;96892.22;;;13.35;88.20
39769;BME280;38939;47.824;14.642;2023-05-07T01:48:15;96888.19;;;13.33;88.18
39769;BME280;38939;47.824;14.642;2023-05-07T01:49:17;96884.38;;;13.29;88.37
39769;BME280;38939;47.824;14.642;2023-05-07T01:50:19;96886.03;;;13.30;88.13
39769;BME280;38939;47.824;14.642;2023-05-07T01:51:21;96889.03;;;13.33;87.97
39769;BME280;38939;47.824;14.642;2023-05-07T01:52:23;96883.78;;;13.33;87.67
39769;BME280;38939;47.824;14.642;2023-05-07T01:53:27;96883.78;;;13.33;87.65
39769;BME280;38939;47.824;14.642;2023-05-07T01:54:29;96891.84;;;13.32;88.09
39769;BME280;38939;47.824;14.642;2023-05-07T01:55:32;96893.44;;;13.33;87.80
39769;BME280;38939;47.824;14.642;2023-05-07T01:56:34;96890.03;;;13.32;87.46
39769;BME280;38939;47.824;14.642;2023-05-07T01:57:36;96891.66;;;13.33;87.34
39769;BME280;38939;47.824;14.642;2023-05-07T01:58:38;96893.69;;;13.31;87.25
39769;BME280;38939;47.824;14.642;2023-05-07T01:59:40;96886.84;;;13.30;87.18
39769;BME280;38939;47.824;14.642;2023-05-07T02:00:42;96889.44;;;13.30;86.96
39769;BME280;38939;47.824;14.642;2023-05-07T02:01:44;96894.28;;;13.27;87.97
39769;BME280;38939;47.824;14.642;2023-05-07T02:02:46;96888.91;;;13.21;87.92
39769;BME280;38939;47.824;14.642;2023-05-07T02:03:48;96891.16;;;13.18;88.08
39769;BME280;38939;47.824;14.642;2023-05-07T02:04:50;96889.22;;;13.13;88.42
39769;BME280;38939;47.824;14.642;2023-05-07T02:05:52;96889.22;;;13.13;88.32
39769;BME280;38939;47.824;14.642;2023-05-07T02:06:54;96886.16;;;13.16;87.61
39769;BME280;38939;47.824;14.642;2023-05-07T02:07:57;96884.69;;;13.20;87.19
39769;BME280;38939;47.824;14.642;2023-05-07T02:08:59;96887.88;;;13.23;87.29
39769;BME280;38939;47.824;14.642;2023-05-07T02:10:00;96883.47;;;13.23;87.22
39769;BME280;38939;47.824;14.642;2023-05-07T02:11:02;96881.44;;;13.25;87.40
39769;BME280;38939;47.824;14.642;2023-05-07T02:12:05;96883.03;;;13.26;87.26
39769;BME280;38939;47.824;14.642;2023-05-07T02:13:07;96883.41;;;13.30;86.92
39769;BME280;38939;47.824;14.642;2023-05-07T02:14:09;96886.84;;;13.30;87.02
39769;BME280;38939;47.824;14.642;2023-05-07T02:15:10;96888.84;;;13.28;87.06
39769;BME280;38939;47.824;14.642;2023-05-07T02:16:12;96887.25;;;13.27;87.49
39769;BME280;38939;47.824;14.642;2023-05-07T02:17:16;96884.63;;;13.27;87.24
39769;BME280;38939;47.824;14.642;2023-05-07T02:18:18;96881.78;;;13.29;87.25
39769;BME280;38939;47.824;14.642;2023-05-07T02:19:19;96885.81;;;13.31;86.65
39769;BME280;38939;47.824;14.642;2023-05-07T02:20:22;96883.78;;;13.33;86.80
39769;BME280;38939;47.824;14.642;2023-05-07T02:21:24;96888.19;;;13.33;87.03
39769;BME280;38939;47.824;14.642;2023-05-07T02:22:28;96889.03;;;13.33;87.28
39769;BME280;38939;47.824;14.642;2023-05-07T02:23:30;96888.44;;;13.31;87.43
39769;BME280;38939;47.824;14.642;2023-05-07T02:24:32;96891.66;;;13.33;87.19
39769;BME280;38939;47.824;14.642;2023-05-07T02:25:34;96892.66;;;13.32;86.98
39769;BME280;38939;47.824;14.642;2023-05-07T02:26:36;96882.38;;;13.31;87.33
39769;BME280;38939;47.824;14.642;2023-05-07T02:27:38;96890.47;;;13.29;87.44
39769;BME280;38939;47.824;14.642;2023-05-07T02:28:39;96887.88;;;13.29;87.44
39769;BME280;38939;47.824;14.642;2023-05-07T02:29:41;96890.09;;;13.26;87.57
39769;BME280;38939;47.824;14.642;2023-05-07T02:30:43;96888.72;;;13.23;88.20
39769;BME280;38939;47.824;14.642;2023-05-07T02:31:45;96883.47;;;13.23;88.09
39769;BME280;38939;47.824;14.642;2023-05-07T02:32:47;96886.88;;;13.24;87.69
39769;BME280;38939;47.824;14.642;2023-05-07T02:33:49;96879.41;;;13.27;87.64
39769;BME280;38939;47.824;14.642;2023-05-07T02:34:51;96883.03;;;13.26;87.66
39769;BME280;38939;47.824;14.642;2023-05-07T02:35:53;96880.03;;;13.23;87.61
39769;BME280;38939;47.824;14.642;2023-05-07T02:36:55;96879.81;;;13.24;87.38
39769;BME280;38939;47.824;14.642;2023-05-07T02:37:57;96884.63;;;13.27;87.20
39769;BME280;38939;47.824;14.642;2023-05-07T02:38:59;96878.19;;;13.30;87.40
39769;BME280;38939;47.824;14.642;2023-05-07T02:40:01;96878.75;;;13.32;87.04
39769;BME280;38939;47.824;14.642;2023-05-07T02:41:05;96879.34;;;13.34;86.86
39769;BME280;38939;47.824;14.642;2023-05-07T02:42:07;96876.72;;;13.34;87.08
39769;BME280;38939;47.824;14.642;2023-05-07T02:43:08;96878.53;;;13.33;87.14
39769;BME280;38939;47.824;14.642;2023-05-07T02:44:10;96881.38;;;13.32;87.45
39769;BME280;38939;47.824;14.642;2023-05-07T02:45:12;96875.34;;;13.31;87.03
39769;BME280;38939;47.824;14.642;2023-05-07T02:46:14;96875.16;;;13.26;87.84
39769;BME280;38939;47.824;14.642;2023-05-07T02:47:17;96878.34;;;13.28;87.75
39769;BME280;38939;47.824;14.642;2023-05-07T02:48:19;96878.44;;;13.21;88.40
39769;BME280;38939;47.824;14.642;2023-05-07T02:49:21;96877.06;;;13.19;88.72
39769;BME280;38939;47.824;14.642;2023-05-07T02:50:23;96880.69;;;13.18;88.49
39769;BME280;38939;47.824;14.642;2023-05-07T02:51:25;96880.47;;;13.19;88.34
39769;BME280;38939;47.824;14.642;2023-05-07T02:52:27;96885.28;;;13.23;87.76
39769;BME280;38939;47.824;14.642;2023-05-07T02:53:29;96874.56;;;13.24;87.67
39769;BME280;38939;47.824;14.642;2023-05-07T02:54:31;96874.38;;;13.26;87.27
39769;BME280;38939;47.824;14.642;2023-05-07T02:55:33;96875.75;;;13.28;87.18
39769;BME280;38939;47.824;14.642;2023-05-07T02:56:35;96872.13;;;13.29;86.73
39769;BME280;38939;47.824;14.642;2023-05-07T02:57:37;96880.59;;;13.31;87.20
39769;BME280;38939;47.824;14.642;2023-05-07T02:58:39;96869.69;;;13.28;88.55
39769;BME280;38939;47.824;14.642;2023-05-07T02:59:41;96874.16;;;13.27;87.85
39769;BME280;38939;47.824;14.642;2023-05-07T03:00:43;96884.22;;;13.30;87.71
39769;BME280;38939;47.824;14.642;2023-05-07T03:01:45;96878.34;;;13.28;88.10
39769;BME280;38939;47.824;14.642;2023-05-07T03:02:47;96878.19;;;13.30;87.84
39769;BME280;38939;47.824;14.642;2023-05-07T03:03:49;96877.72;;;13.33;87.83
39769;BME280;38939;47.824;14.642;2023-05-07T03:04:51;96877.50;;;13.34;87.68
39769;BME280;38939;47.824;14.642;2023-05-07T03:05:53;96880.13;;;13.34;88.19
39769;BME280;38939;47.824;14.642;2023-05-07T03:06:55;96886.16;;;13.35;87.98
39769;BME280;38939;47.824;14.642;2023-05-07T03:07:57;96884.94;;;13.37;87.80
39769;BME280;38939;47.824;14.642;2023-05-07T03:08:58;96877.66;;;13.39;87.82
39769;BME280;38939;47.824;14.642;2023-05-07T03:10:00;96884.50;;;13.40;87.60
39769;BME280;38939;47.824;14.642;2023-05-07T03:11:02;96884.28;;;13.42;87.54
39769;BME280;38939;47.824;14.642;2023-05-07T03:12:04;96884.06;;;13.44;87.07
39769;BME280;38939;47.824;14.642;2023-05-07T03:13:06;96888.28;;;13.45;86.90
39769;BME280;38939;47.824;14.642;2023-05-07T03:14:08;96886.69;;;13.44;87.53
39769;BME280;38939;47.824;14.642;2023-05-07T03:15:10;96884.50;;;13.40;87.79
39769;BME280;38939;47.824;14.642;2023-05-07T03:16:14;96885.75;;;13.38;88.50
39769;BME280;38939;47.824;14.642;2023-05-07T03:17:16;96882.53;;;13.36;88.72
39769;BME280;38939;47.824;14.642;2023-05-07T03:18:17;96884.22;;;13.30;89.35
39769;BME280;38939;47.824;14.642;2023-05-07T03:19:20;96888.44;;;13.31;89.44
39769;BME280;38939;47.824;14.642;2023-05-07T03:20:22;96882.16;;;13.32;89.42
39769;BME280;38939;47.824;14.642;2023-05-07T03:21:24;96891.41;;;13.35;89.04
39769;BME280;38939;47.824;14.642;2023-05-07T03:22:27;96885.16;;;13.36;88.56
39769;BME280;38939;47.824;14.642;2023-05-07T03:23:29;96889.94;;;13.39;88.52
39769;BME280;38939;47.824;14.642;2023-05-07T03:24:31;96889.81;;;13.34;88.73
39769;BME280;38939;47.824;14.642;2023-05-07T03:25:33;96881.97;;;13.34;89.05
39769;BME280;38939;47.824;14.642;2023-05-07T03:26:35;96890.97;;;13.38;88.88
39769;BME280;38939;47.824;14.642;2023-05-07T03:27:37;96888.16;;;13.39;88.38
39769;BME280;38939;47.824;14.642;2023-05-07T03:28:39;96892.34;;;13.40;88.13
39769;BME280;38939;47.824;14.642;2023-05-07T03:29:41;96896.59;;;13.42;88.40
39769;BME280;38939;47.824;14.642;2023-05-07T03:30:43;96887.91;;;13.41;88.19
39769;BME280;38939;47.824;14.642;2023-05-07T03:31:45;96893.97;;;13.42;88.16
39769;BME280;38939;47.824;14.642;2023-05-07T03:32:47;96895.28;;;13.32;89.02
39769;BME280;38939;47.824;14.642;2023-05-07T03:33:55;96895.13;;;13.27;88.77
39769;BME280;38939;47.824;14.642;2023-05-07T03:34:57;96895.31;;;13.26;89.23
39769;BME280;38939;47.824;14.642;2023-05-07T03:35:59;96892.25;;;13.29;88.94
39769;BME280;38939;47.824;14.642;2023-05-07T03:37:01;96897.91;;;13.32;88.88
39769;BME280;38939;47.824;14.642;2023-05-07T03:38:03;96893.22;;;13.34;88.73
39769;BME280;38939;47.824;14.642;2023-05-07T03:39:05;96896.66;;;13.35;88.35
39769;BME280;38939;47.824;14.642;2023-05-07T03:40:07;96889.25;;;13.32;88.92
39769;BME280;38939;47.824;14.642;2023-05-07T03:41:10;96899.13;;;13.30;88.69
39769;BME280;38939;47.824;14.642;2023-05-07T03:42:12;96897.31;;;13.30;88.84
39769;BME280;38939;47.824;14.642;2023-05-07T03:43:14;96898.69;;;13.33;89.04
39769;BME280;38939;47.824;14.642;2023-05-07T03:44:16;96899.06;;;13.36;88.49
39769;BME280;38939;47.824;14.642;2023-05-07T03:45:18;96900.66;;;13.37;88.77
39769;BME280;38939;47.824;14.642;2023-05-07T03:46:20;96902.72;;;13.35;88.84
39769;BME280;38939;47.824;14.642;2023-05-07T03:47:22;96896.66;;;13.35;88.60
39769;BME280;38939;47.824;14.642;2023-05-07T03:48:23;96904.28;;;13.36;88.22
39769;BME280;38939;47.824;14.642;2023-05-07T03:49:26;96895.63;;;13.36;88.94
39769;BME280;38939;47.824;14.642;2023-05-07T03:50:28;96897.91;;;13.32;89.29
39769;BME280;38939;47.824;14.642;2023-05-07T03:51:30;96901.88;;;13.35;89.00
39769;BME280;38939;47.824;14.642;2023-05-07T03:52:32;96898.25;;;13.36;89.02
39769;BME280;38939;47.824;14.642;2023-05-07T03:53:33;96904.28;;;13.36;88.84
39769;BME280;38939;47.824;14.642;2023-05-07T03:54:36;96906.91;;;13.36;88.54
39769;BME280;38939;47.824;14.642;2023-05-07T03:55:38;96906.72;;;13.38;88.69
39769;BME280;38939;47.824;14.642;2023-05-07T03:56:40;96903.50;;;13.36;88.92
39769;BME280;38939;47.824;14.642;2023-05-07T03:57:42;96912.16;;;13.36;89.11
39769;BME280;38939;47.824;14.642;2023-05-07T03:58:43;96905.53;;;13.34;89.22
39769;BME280;38939;47.824;14.642;2023-05-07T03:59:45;96913.19;;;13.35;89.11
39769;BME280;38939;47.824;14.642;2023-05-07T04:00:47;96907.94;;;13.35;88.92
39769;BME280;38939;47.824;14.642;2023-05-07T04:01:50;96902.47;;;13.37;88.44
39769;BME280;38939;47.824;14.642;2023-05-07T04:02:52;96912.38;;;13.35;88.67
39769;BME280;38939;47.824;14.642;2023-05-07T04:03:54;96901.09;;;13.34;88.71
39769;BME280;38939;47.824;14.642;2023-05-07T04:04:56;96907.94;;;13.35;88.46
39769;BME280;38939;47.824;14.642;2023-05-07T04:05:58;96902.72;;;13.35;88.88
39769;BME280;38939;47.824;14.642;2023-05-07T04:07:00;96906.34;;;13.34;88.77
39769;BME280;38939;47.824;14.642;2023-05-07T04:08:02;96908.97;;;13.34;89.36
39769;BME280;38939;47.824;14.642;2023-05-07T04:09:04;96906.78;;;13.31;89.13
39769;BME280;38939;47.824;14.642;2023-05-07T04:10:06;96910.41;;;13.30;89.13
39769;BME280;38939;47.824;14.642;2023-05-07T04:11:08;96912.81;;;13.32;89.10
39769;BME280;38939;47.824;14.642;2023-05-07T04:12:10;96908.16;;;13.34;89.13
39769;BME280;38939;47.824;14.642;2023-05-07T04:13:12;96909.31;;;13.38;89.00
39769;BME280;38939;47.824;14.642;2023-05-07T04:14:14;96916.41;;;13.37;89.29
39769;BME280;38939;47.824;14.642;2023-05-07T04:15:16;96916.59;;;13.36;89.09
39769;BME280;38939;47.824;14.642;2023-05-07T04:16:18;96917.63;;;13.35;89.14
39769;BME280;38939;47.824;14.642;2023-05-07T04:17:20;96920.81;;;13.37;89.18
39769;BME280;38939;47.824;14.642;2023-05-07T04:18:22;96922.22;;;13.39;88.80
39769;BME280;38939;47.824;14.642;2023-05-07T04:19:24;96920.59;;;13.38;89.04
39769;BME280;38939;47.824;14.642;2023-05-07T04:20:26;96915.94;;;13.40;88.81
39769;BME280;38939;47.824;14.642;2023-05-07T04:21:28;96916.72;;;13.41;88.89
39769;BME280;38939;47.824;14.642;2023-05-07T04:22:30;96922.81;;;13.42;88.87
39769;BME280;38939;47.824;14.642;2023-05-07T04:23:31;96918.34;;;13.42;88.85
39769;BME280;38939;47.824;14.642;2023-05-07T04:24:33;96920.97;;;13.42;88.51
39769;BME280;38939;47.824;14.642;2023-05-07T04:25:35;96921.63;;;13.37;89.00
39769;BME280;38939;47.824;14.642;2023-05-07T04:26:37;96918.78;;;13.39;88.83
39769;BME280;38939;47.824;14.642;2023-05-07T04:27:39;96920.59;;;13.38;89.34
39769;BME280;38939;47.824;14.642;2023-05-07T04:28:41;96919.44;;;13.34;89.50
39769;BME280;38939;47.824;14.642;2023-05-07T04:29:43;96926.31;;;13.29;90.10
39769;BME280;38939;47.824;14.642;2023-05-07T04:30:48;96923.34;;;13.25;90.35
39769;BME280;38939;47.824;14.642;2023-05-07T04:31:50;96920.28;;;13.28;90.06
39769;BME280;38939;47.824;14.642;2023-05-07T04:32:52;96918.84;;;13.32;90.07
39769;BME280;38939;47.824;14.642;2023-05-07T04:33:54;96924.47;;;13.36;89.92
39769;BME280;38939;47.824;14.642;2023-05-07T04:34:56;96920.03;;;13.36;90.06
39769;BME280;38939;47.824;14.642;2023-05-07T04:35:59;96927.66;;;13.38;89.84
39769;BME280;38939;47.824;14.642;2023-05-07T04:37:04;96932.91;;;13.38;89.95
39769;BME280;38939;47.824;14.642;2023-05-07T04:38:06;96926.44;;;13.40;89.37
39769;BME280;38939;47.824;14.642;2023-05-07T04:39:08;96928.03;;;13.42;90.04
39769;BME280;38939;47.824;14.642;2023-05-07T04:40:10;96933.03;;;13.43;89.42
39769;BME280;38939;47.824;14.642;2023-05-07T04:41:13;96927.16;;;13.48;89.49
39769;BME280;38939;47.824;14.642;2023-05-07T04:42:15;96934.00;;;13.49;89.20
39769;BME280;38939;47.824;14.642;2023-05-07T04:43:17;96934.00;;;13.49;89.30
39769;BME280;38939;47.824;14.642;2023-05-07T04:44:19;96933.19;;;13.48;89.33
39769;BME280;38939;47.824;14.642;2023-05-07T04:45:20;96930.78;;;13.47;89.23
39769;BME280;38939;47.824;14.642;2023-05-07T04:46:22;96938.66;;;13.47;89.23
39769;BME280;38939;47.824;14.642;2023-05-07T04:47:26;96935.59;;;13.50;89.15
39769;BME280;38939;47.824;14.642;2023-05-07T04:48:28;96934.56;;;13.51;89.46
39769;BME280;38939;47.824;14.642;2023-05-07T04:49:30;96933.00;;;13.50;89.14
39769;BME280;38939;47.824;14.642;2023-05-07T04:50:32;96938.44;;;13.48;89.65
39769;BME280;38939;47.824;14.642;2023-05-07T04:51:34;96937.66;;;13.48;89.40
39769;BME280;38939;47.824;14.642;2023-05-07T04:52:36;96932.25;;;13.43;89.42
39769;BME280;38939;47.824;14.642;2023-05-07T04:53:38;96944.19;;;13.38;89.76
39769;BME280;38939;47.824;14.642;2023-05-07T04:54:40;96934.88;;;13.43;89.48
39769;BME280;38939;47.824;14.642;2023-05-07T04:55:41;96933.19;;;13.48;89.45
39769;BME280;38939;47.824;14.642;2023-05-07T04:56:44;96936.19;;;13.52;89.15
39769;BME280;38939;47.824;14.642;2023-05-07T04:57:46;96939.19;;;13.55;89.27
39769;BME280;38939;47.824;14.642;2023-05-07T04:58:48;96940.56;;;13.58;89.35
39769;BME280;38939;47.824;14.642;2023-05-07T04:59:50;96935.91;;;13.60;89.29
39769;BME280;38939;47.824;14.642;2023-05-07T05:00:52;96938.63;;;13.65;89.01
39769;BME280;38939;47.824;14.642;2023-05-07T05:01:54;96940.84;;;13.68;88.86
39769;BME280;38939;47.824;14.642;2023-05-07T05:02:57;96933.75;;;13.69;88.94
39769;BME280;38939;47.824;14.642;2023-05-07T05:03:59;96939.00;;;13.69;88.62
39769;BME280;38939;47.824;14.642;2023-05-07T05:05:02;96935.81;;;13.67;89.01
39769;BME280;38939;47.824;14.642;2023-05-07T05:06:04;96929.97;;;13.65;89.04
39769;BME280;38939;47.824;14.642;2023-05-07T05:07:06;96934.66;;;13.63;89.28
39769;BME280;38939;47.824;14.642;2023-05-07T05:08:08;96933.41;;;13.65;89.15
39769;BME280;38939;47.824;14.642;2023-05-07T05:09:10;96935.00;;;13.66;89.19
39769;BME280;38939;47.824;14.642;2023-05-07T05:10:12;96931.59;;;13.66;89.19
39769;BME280;38939;47.824;14.642;2023-05-07T05:11:14;96939.47;;;13.66;88.99
39769;BME280;38939;47.824;14.642;2023-05-07T05:12:16;96940.69;;;13.63;89.45
39769;BME280;38939;47.824;14.642;2023-05-07T05:13:18;96927.81;;;13.62;89.36
39769;BME280;38939;47.824;14.642;2023-05-07T05:14:20;96941.25;;;13.65;89.43
39769;BME280;38939;47.824;14.642;2023-05-07T05:15:22;96942.31;;;13.64;89.63
39769;BME280;38939;47.824;14.642;2023-05-07T05:16:24;96940.47;;;13.65;89.58
39769;BME280;38939;47.824;14.642;2023-05-07T05:17:26;96942.31;;;13.64;89.33
39769;BME280;38939;47.824;14.642;2023-05-07T05:18:28;96941.72;;;13.62;89.45
39769;BME280;38939;47.824;14.642;2023-05-07T05:19:30;96943.75;;;13.60;89.61
39769;BME280;38939;47.824;14.642;2023-05-07T05:20:32;96941.25;;;13.65;89.63
39769;BME280;38939;47.824;14.642;2023-05-07T05:21:34;96945.03;;;13.69;89.24
39769;BME280;38939;47.824;14.642;2023-05-07T05:22:35;96932.97;;;13.68;89.28
39769;BME280;38939;47.824;14.642;2023-05-07T05:23:37;96946.19;;;13.73;89.54
39769;BME280;38939;47.824;14.642;2023-05-07T05:24:40;96938.69;;;13.77;89.40